Time;durP1;ratioP1;P1;durP2;ratioP2;P2;SDS_P1;SDS_P2;PMS_P1;PMS_P2;Temp;Humidity;BMP_temperature;BMP_pressure;BME280_temperature;BME280_humidity;BME280_pressure;Samples;Min_cycle;Max_cycle;Signal;HPM_P1;HPM_P2
2022/08/17 00:01:19;;;;;;;10.83;6.17;;;;;;;-141.28;100.00;50212.44;5092269;28;20319;-75
2022/08/17 00:03:48;;;;;;;16.10;7.07;;;;;;;-141.28;100.00;50130.00;5091616;28;20198;-73
2022/08/17 00:06:17;;;;;;;11.33;6.83;;;;;;;-141.28;100.00;50130.00;5091956;28;20199;-74
2022/08/17 00:08:46;;;;;;;13.40;6.80;;;;;;;-141.28;100.00;50086.84;5091311;28;20219;-74
2022/08/17 00:11:17;;;;;;;10.87;6.30;;;;;;;-141.28;100.00;50039.72;5091558;28;20200;-75
2022/08/17 00:13:48;;;;;;;7.90;6.23;;;;;;;-141.28;100.00;50012.25;5091613;28;20196;-75
2022/08/17 00:16:18;;;;;;;16.73;7.00;;;;;;;-141.28;100.00;49969.06;5091681;28;20207;-74
2022/08/17 00:18:47;;;;;;;8.53;6.07;;;;;;;-141.28;100.00;49935.72;5091456;28;20191;-75
2022/08/17 00:21:16;;;;;;;10.73;6.77;;;;;;;-141.28;100.00;49933.75;5091949;28;20199;-75
2022/08/17 00:23:44;;;;;;;9.00;6.67;;;;;;;-141.28;100.00;49945.53;5091753;28;20206;-74
2022/08/17 00:26:12;;;;;;;13.50;6.93;;;;;;;-141.28;100.00;49941.59;5092263;28;20195;-73
2022/08/17 00:28:40;;;;;;;9.33;6.97;;;;;;;-141.28;100.00;49920.00;5091565;28;20223;-74
2022/08/17 00:31:10;;;;;;;7.80;6.57;;;;;;;-141.28;100.00;49916.09;5092635;28;20211;-77
2022/08/17 00:33:41;;;;;;;10.40;7.80;;;;;;;-141.28;100.00;49906.28;5099347;28;20559;-75
2022/08/17 00:36:08;;;;;;;10.83;7.90;;;;;;;-141.28;100.00;49908.25;5108951;28;20195;-74
2022/08/17 00:38:36;;;;;;;10.80;6.30;;;;;;;-141.28;100.00;49886.66;5104026;28;20198;-76
2022/08/17 00:41:06;;;;;;;13.13;7.43;;;;;;;-141.28;100.00;49894.50;5117237;28;20203;-76
2022/08/17 00:43:37;;;;;;;9.87;6.10;;;;;;;-141.28;100.00;49898.44;5118671;28;20209;-74
2022/08/17 00:46:10;;;;;;;10.93;7.67;;;;;;;-141.28;100.00;49923.94;5114123;28;20213;-74
2022/08/17 00:48:37;;;;;;;8.60;7.70;;;;;;;-141.28;100.00;49908.25;5115321;28;20763;-74
2022/08/17 00:51:12;;;;;;;12.27;6.97;;;;;;;-141.28;100.00;49914.13;5114101;28;20594;-74
2022/08/17 00:53:42;;;;;;;9.27;6.20;;;;;;;-141.28;100.00;49912.16;5115288;28;20206;-75
2022/08/17 00:56:15;;;;;;;9.70;7.10;;;;;;;-141.28;100.00;49882.72;5114479;28;20199;-75
2022/08/17 00:58:43;;;;;;;11.80;7.30;;;;;;;-141.28;100.00;49865.06;5114201;28;20646;-74
2022/08/17 01:01:13;;;;;;;10.77;6.70;;;;;;;-141.28;100.00;49863.09;5114808;28;20190;-74
2022/08/17 01:03:42;;;;;;;10.23;6.53;;;;;;;-141.28;100.00;49859.19;5113562;28;20195;-74
2022/08/17 01:06:10;;;;;;;9.37;6.67;;;;;;;-141.28;100.00;49869.00;5115445;28;20194;-74
2022/08/17 01:08:39;;;;;;;14.47;7.70;;;;;;;-141.28;100.00;49859.19;5115262;28;20709;-75
2022/08/17 01:11:09;;;;;;;8.00;7.20;;;;;;;-141.28;100.00;49861.13;5115022;28;20195;-74
2022/08/17 01:13:42;;;;;;;10.97;7.40;;;;;;;-141.28;100.00;49867.03;5110287;28;20198;-74
2022/08/17 01:16:16;;;;;;;9.60;7.23;;;;;;;-141.28;100.00;49863.09;5109093;28;20238;-73
2022/08/17 01:18:44;;;;;;;21.03;7.97;;;;;;;-141.28;100.00;49855.25;5095125;28;20402;-75
2022/08/17 01:21:18;;;;;;;12.53;6.47;;;;;;;-141.28;100.00;49843.47;5097935;28;20202;-75
2022/08/17 01:23:47;;;;;;;17.17;7.57;;;;;;;-141.28;100.00;49870.94;5103398;28;20203;-74
2022/08/17 01:26:14;;;;;;;12.20;7.33;;;;;;;-141.28;100.00;49831.69;5094498;28;20204;-73
2022/08/17 01:28:41;;;;;;;10.00;6.53;;;;;;;-141.28;100.00;49812.06;5094513;28;20234;-75
2022/08/17 01:31:09;;;;;;;10.23;6.97;;;;;;;-141.28;100.00;49812.06;5096108;28;20215;-74
2022/08/17 01:33:36;;;;;;;13.27;6.77;;;;;;;-141.28;100.00;49827.78;5094701;28;20195;-73
2022/08/17 01:36:08;;;;;;;10.00;5.80;;;;;;;-141.28;100.00;49843.47;5095270;28;20207;-74
2022/08/17 01:38:36;;;;;;;13.27;6.23;;;;;;;-141.28;100.00;49847.41;5108759;28;20199;-75
2022/08/17 01:41:10;;;;;;;10.27;6.13;;;;;;;-141.28;100.00;49863.09;5107196;28;20215;-76
2022/08/17 01:43:42;;;;;;;11.50;6.60;;;;;;;-141.28;100.00;49863.09;5097132;28;20206;-75
2022/08/17 01:46:10;;;;;;;13.60;6.93;;;;;;;-141.28;100.00;49870.94;5096262;28;20191;-74
2022/08/17 01:48:38;;;;;;;8.77;5.70;;;;;;;-141.28;100.00;49874.88;5113220;28;20719;-73
2022/08/17 01:51:07;;;;;;;8.60;5.83;;;;;;;-141.28;100.00;49870.94;5112773;28;20260;-75
2022/08/17 01:53:39;;;;;;;11.83;6.27;;;;;;;-141.28;100.00;49849.38;5094267;28;20371;-75
2022/08/17 01:56:10;;;;;;;11.10;6.73;;;;;;;-141.28;100.00;49886.66;5096372;28;20195;-75
2022/08/17 01:58:39;;;;;;;9.60;6.20;;;;;;;-141.28;100.00;49867.03;5104294;28;20203;-73
2022/08/17 02:01:08;;;;;;;13.07;6.53;;;;;;;-141.28;100.00;49870.94;5094133;28;20198;-74
2022/08/17 02:03:37;;;;;;;8.80;6.60;;;;;;;-141.28;100.00;49882.72;5094402;28;20195;-73
2022/08/17 02:06:05;;;;;;;8.70;6.47;;;;;;;-141.28;100.00;49902.34;5095814;28;20199;-76
2022/08/17 02:08:34;;;;;;;8.70;6.70;;;;;;;-141.28;100.00;49898.44;5096389;28;20223;-74
2022/08/17 02:11:02;;;;;;;7.90;5.87;;;;;;;-141.28;100.00;49918.06;5105258;28;20290;-75
2022/08/17 02:13:32;;;;;;;10.37;6.70;;;;;;;-141.28;100.00;49912.16;5096284;28;20211;-73
2022/08/17 02:16:00;;;;;;;16.70;6.83;;;;;;;-141.28;100.00;49908.25;5104204;28;20226;-74
2022/08/17 02:18:28;;;;;;;10.80;6.53;;;;;;;-141.28;100.00;49914.13;5095091;28;20207;-74
2022/08/17 02:20:56;;;;;;;12.03;6.60;;;;;;;-141.28;100.00;49933.75;5114040;28;20199;-74
2022/08/17 02:23:27;;;;;;;7.60;6.00;;;;;;;-141.28;100.00;49935.72;5100117;28;20563;-73
2022/08/17 02:25:55;;;;;;;9.23;6.73;;;;;;;-141.28;100.00;49941.59;5113858;28;20198;-75
2022/08/17 02:28:23;;;;;;;9.47;6.37;;;;;;;-141.28;100.00;49953.38;5110002;28;20724;-75
2022/08/17 02:30:52;;;;;;;13.20;7.43;;;;;;;-141.28;100.00;49992.63;5094727;28;20198;-75
2022/08/17 02:33:19;;;;;;;9.80;8.07;;;;;;;-141.28;100.00;49986.75;5093228;28;20565;-75
2022/08/17 02:35:46;;;;;;;17.33;7.93;;;;;;;-141.28;100.00;50086.84;5093235;28;20684;-74
2022/08/17 02:38:15;;;;;;;17.20;8.17;;;;;;;-141.28;100.00;50334.13;5093491;28;20263;-74
2022/08/17 02:40:44;;;;;;;13.03;8.77;;;;;;;-141.28;100.00;50387.13;5080409;28;20200;-76
2022/08/17 02:43:12;;;;;;;10.87;8.37;;;;;;;-141.28;100.00;50416.56;5080668;28;20200;-75
2022/08/17 02:45:39;;;;;;;16.60;8.90;;;;;;;-141.28;100.00;50420.50;5111512;28;20194;-75
2022/08/17 02:48:08;;;;;;;24.63;10.70;;;;;;;-141.28;100.00;50446.03;5095069;28;20232;-75
2022/08/17 02:50:35;;;;;;;14.03;8.57;;;;;;;-141.28;100.00;50412.66;5095033;28;20561;-77
2022/08/17 02:53:02;;;;;;;12.33;8.73;;;;;;;-141.28;100.00;50381.25;5104743;28;20206;-74
2022/08/17 02:55:31;;;;;;;12.60;8.47;;;;;;;-141.28;100.00;50345.91;5092704;28;20192;-75
2022/08/17 02:57:59;;;;;;;19.10;8.73;;;;;;;-141.28;100.00;50318.44;5106602;28;20234;-75
2022/08/17 03:00:28;;;;;;;13.97;8.37;;;;;;;-141.28;100.00;50277.22;5090232;28;20294;-76
2022/08/17 03:02:56;;;;;;;15.63;8.43;;;;;;;-141.28;100.00;50220.28;5109735;28;20673;-74
2022/08/17 03:05:28;;;;;;;18.63;8.93;;;;;;;-141.28;100.00;50186.94;5101577;28;20195;-74
2022/08/17 03:07:56;;;;;;;15.97;8.50;;;;;;;-141.28;100.00;50130.00;5109079;28;20581;-76
2022/08/17 03:10:24;;;;;;;14.77;8.10;;;;;;;-141.28;100.00;50086.84;5109368;28;20199;-75
2022/08/17 03:12:52;;;;;;;12.13;9.03;;;;;;;-141.28;100.00;50020.09;5093583;28;20200;-75
2022/08/17 03:15:21;;;;;;;12.33;9.07;;;;;;;-141.28;100.00;50024.03;5093510;28;20668;-75
2022/08/17 03:17:50;;;;;;;18.20;8.83;;;;;;;-141.28;100.00;50016.19;5093064;28;20630;-75
2022/08/17 03:20:18;;;;;;;10.77;8.83;;;;;;;-141.28;100.00;50020.09;5093169;28;20728;-73
2022/08/17 03:22:50;;;;;;;16.20;9.70;;;;;;;-141.28;100.00;50035.81;5092678;28;20195;-76
2022/08/17 03:25:22;;;;;;;18.80;8.70;;;;;;;-141.28;100.00;50043.66;5093249;28;20213;-75
2022/08/17 03:27:50;;;;;;;19.37;9.50;;;;;;;-141.28;100.00;49994.59;5092850;28;20227;-75
2022/08/17 03:30:18;;;;;;;21.80;9.17;;;;;;;-141.28;100.00;49949.44;5093971;28;20219;-76
2022/08/17 03:32:47;;;;;;;15.80;7.57;;;;;;;-141.28;100.00;49947.50;5106367;28;20260;-74
2022/08/17 03:35:17;;;;;;;12.43;6.00;;;;;;;-141.28;100.00;49973.00;5112413;28;20222;-76
2022/08/17 03:37:44;;;;;;;9.50;5.93;;;;;;;-141.28;100.00;50047.59;5111888;28;20203;-75
2022/08/17 03:40:13;;;;;;;12.33;5.50;;;;;;;-141.28;100.00;50149.63;5103430;28;20259;-75
2022/08/17 03:42:41;;;;;;;7.77;5.30;;;;;;;-141.28;100.00;50234.03;5092356;28;20669;-73
2022/08/17 03:45:15;;;;;;;8.67;5.33;;;;;;;-141.28;100.00;50349.84;5092746;28;20195;-73
2022/08/17 03:58:53;;;;;;;14.00;6.10;;;;;;;-141.28;100.00;50901.44;5095995;28;20202;-74
2022/08/17 04:01:22;;;;;;;11.13;6.60;;;;;;;-141.28;100.00;50775.78;5101336;28;20198;-74
2022/08/17 04:03:50;;;;;;;25.97;7.80;;;;;;;-141.28;100.00;50746.34;5111211;28;20256;-74
2022/08/17 04:06:17;;;;;;;13.27;7.13;;;;;;;-141.28;100.00;50742.41;5083774;28;20200;-76
2022/08/17 04:08:44;;;;;;;17.17;7.47;;;;;;;-141.28;100.00;50718.88;5108013;28;20712;-74
2022/08/17 04:11:12;;;;;;;18.83;7.90;;;;;;;-141.28;100.00;50711.00;5111295;28;20227;-74
2022/08/17 04:13:39;;;;;;;21.53;8.10;;;;;;;-141.28;100.00;50714.94;5097486;28;20196;-75
2022/08/17 04:16:06;;;;;;;12.90;7.83;;;;;;;-141.28;100.00;50699.22;5091911;28;20207;-76
2022/08/17 04:18:33;;;;;;;18.37;8.03;;;;;;;-141.28;100.00;50726.72;5073759;28;20231;-74
2022/08/17 04:21:00;;;;;;;14.03;8.30;;;;;;;-141.28;100.00;50793.47;5091384;28;20654;-75
2022/08/17 04:23:32;;;;;;;11.67;7.87;;;;;;;-141.28;100.00;50844.50;5091122;28;20293;-73
2022/08/17 04:25:59;;;;;;;15.93;8.83;;;;;;;-141.28;100.00;50907.31;5105498;28;20205;-76
2022/08/17 04:28:29;;;;;;;17.03;9.33;;;;;;;-141.28;100.00;50958.38;5085013;28;20214;-75
2022/08/17 04:30:57;;;;;;;15.73;7.73;;;;;;;-141.28;100.00;50956.41;5100384;28;20195;-74
2022/08/17 04:33:26;;;;;;;12.77;8.70;;;;;;;-141.28;100.00;50958.38;5097497;28;20187;-76
2022/08/17 04:35:57;;;;;;;18.03;9.47;;;;;;;-141.28;100.00;50978.00;5110766;28;20574;-74
2022/08/17 04:38:27;;;;;;;11.87;9.20;;;;;;;-141.28;100.00;51009.41;5086710;28;20195;-74
2022/08/17 04:43:43;;;;;;;14.27;9.30;;;;;;;-141.28;100.00;51138.97;5111534;28;20218;-72
2022/08/17 04:46:15;;;;;;;19.80;9.23;;;;;;;-141.28;100.00;51068.28;5097669;28;20194;-75
2022/08/17 04:48:45;;;;;;;15.70;8.53;;;;;;;-141.28;100.00;51054.56;5112479;28;20322;-73
2022/08/17 04:51:15;;;;;;;18.27;9.17;;;;;;;-141.28;100.00;51032.97;5116107;28;20191;-75
2022/08/17 04:53:47;;;;;;;20.40;8.80;;;;;;;-141.28;100.00;51032.97;5111600;28;20195;-73
2022/08/17 04:56:15;;;;;;;17.13;8.40;;;;;;;-141.28;100.00;51023.16;5078733;28;20230;-74
2022/08/17 04:58:46;;;;;;;13.10;9.03;;;;;;;-141.28;100.00;51017.25;5105974;28;20684;-74
2022/08/17 05:01:14;;;;;;;14.73;9.43;;;;;;;-141.28;100.00;51025.09;5093353;28;20203;-77
2022/08/17 05:03:44;;;;;;;17.30;10.43;;;;;;;-141.28;100.00;51013.31;5097055;28;20205;-78
2022/08/17 05:06:11;;;;;;;21.83;11.33;;;;;;;-141.28;100.00;51005.47;5091257;28;20198;-74
2022/08/17 05:08:39;;;;;;;20.20;10.67;;;;;;;-141.28;100.00;50991.72;5105127;28;20199;-76
2022/08/17 05:11:06;;;;;;;25.10;10.93;;;;;;;-141.28;100.00;50873.94;5111185;28;20202;-73
2022/08/17 05:13:34;;;;;;;16.03;9.20;;;;;;;-141.28;100.00;50707.09;5110565;28;20210;-75
2022/08/17 05:16:04;;;;;;;34.57;10.77;;;;;;;-141.28;100.00;50673.72;5111425;28;20195;-74
2022/08/17 05:18:33;;;;;;;22.37;9.03;;;;;;;-141.28;100.00;50659.97;5109013;28;20564;-75
2022/08/17 05:21:01;;;;;;;22.70;8.87;;;;;;;-141.28;100.00;50628.56;5101824;28;20199;-76
2022/08/17 05:23:35;;;;;;;21.07;7.83;;;;;;;-141.28;100.00;50581.47;5113716;28;20195;-74
2022/08/17 05:26:03;;;;;;;22.77;9.20;;;;;;;-141.28;100.00;50581.47;5085530;28;20661;-74
2022/08/17 05:28:31;;;;;;;16.73;8.37;;;;;;;-141.28;100.00;50538.28;5104526;28;20199;-74
2022/08/17 05:31:01;;;;;;;15.77;8.13;;;;;;;-141.28;100.00;50489.19;5103543;28;20286;-73
2022/08/17 05:33:32;;;;;;;14.07;7.90;;;;;;;-141.28;100.00;50550.06;5092579;28;20252;-74
2022/08/17 05:36:02;;;;;;;20.00;7.53;;;;;;;-141.28;100.00;50561.81;5114799;28;20740;-76
2022/08/17 05:38:30;;;;;;;23.90;8.97;;;;;;;-141.28;100.00;50608.94;5093237;28;20203;-74
2022/08/17 05:41:00;;;;;;;25.33;8.13;;;;;;;-141.28;100.00;50665.88;5098512;28;20286;-75
2022/08/17 05:43:30;;;;;;;25.00;8.57;;;;;;;-141.28;100.00;50695.31;5094459;28;20269;-75
2022/08/17 05:46:03;;;;;;;18.63;8.50;;;;;;;-141.28;100.00;50773.81;5099321;28;20195;-76
2022/08/17 05:48:45;;;;;;;32.23;9.07;;;;;;;-141.28;100.00;50799.34;5101085;28;20227;-74
2022/08/17 05:51:36;;;;;;;32.50;8.43;;;;;;;-141.28;100.00;50828.78;5076651;28;20669;-74
2022/08/17 05:54:15;;;;;;;21.90;8.37;;;;;;;-141.28;100.00;50885.72;5074416;28;20579;-76
2022/08/17 05:57:27;;;;;;;26.00;8.43;;;;;;;-141.28;100.00;50866.09;5074434;28;20203;-75
2022/08/17 06:00:04;;;;;;;17.97;8.10;;;;;;;-141.28;100.00;50895.53;5063724;28;20283;-76
2022/08/17 06:02:48;;;;;;;14.00;7.43;;;;;;;-141.28;100.00;50875.91;5074761;28;20200;-74
2022/08/17 06:05:33;;;;;;;13.87;7.80;;;;;;;-141.28;100.00;50930.88;5075784;28;20192;-75
2022/08/17 06:08:20;;;;;;;20.27;8.80;;;;;;;-141.28;100.00;50983.88;5064878;28;20203;-77
2022/08/17 06:10:56;;;;;;;18.50;8.60;;;;;;;-141.28;100.00;51048.66;5075234;28;20227;-75
2022/08/17 06:13:39;;;;;;;13.13;7.90;;;;;;;-141.28;100.00;51119.34;5075504;28;20200;-75
2022/08/17 06:16:14;;;;;;;15.07;7.43;;;;;;;-141.28;100.00;51119.34;5069017;28;20195;-73
2022/08/17 06:18:54;;;;;;;18.37;8.43;;;;;;;-141.28;100.00;51205.72;5074806;28;20188;-75
2022/08/17 06:21:25;;;;;;;13.13;7.53;;;;;;;-141.28;100.00;51409.91;5074031;28;20243;-75
2022/08/17 06:23:56;;;;;;;14.57;8.13;;;;;;;-141.28;100.00;51429.53;5073524;28;20652;-77
2022/08/17 06:26:28;;;;;;;15.33;8.53;;;;;;;-141.28;100.00;51437.41;5059911;28;20204;-74
2022/08/17 06:28:59;;;;;;;18.63;7.80;;;;;;;-141.28;100.00;51423.66;5073496;28;20274;-75
2022/08/17 06:31:28;;;;;;;12.70;7.60;;;;;;;-141.28;100.00;51557.16;5059667;28;20265;-75
2022/08/17 06:33:58;;;;;;;14.83;7.63;;;;;;;-141.28;100.00;51637.69;5092863;28;20199;-75
2022/08/17 06:36:41;;;;;;;15.60;6.90;;;;;;;-141.28;100.00;51704.44;5092095;28;20245;-75
2022/08/17 06:39:32;;;;;;;12.50;7.23;;;;;;;-141.28;100.00;51828.16;5092857;28;20301;-75
2022/08/17 06:42:10;;;;;;;17.90;7.27;;;;;;;-141.28;100.00;51892.94;5067397;28;20195;-77
2022/08/17 06:44:43;;;;;;;12.93;7.10;;;;;;;-141.28;100.00;51792.81;5092205;28;20200;-75
2022/08/17 06:47:14;;;;;;;11.10;7.43;;;;;;;-141.28;100.00;51837.97;5092573;28;20209;-75
2022/08/17 06:49:48;;;;;;;14.70;6.73;;;;;;;-141.28;100.00;51798.69;5091764;28;20689;-74
2022/08/17 06:52:25;;;;;;;11.03;7.27;;;;;;;-141.28;100.00;51857.59;5092492;28;20248;-74
2022/08/17 06:55:00;;;;;;;12.63;7.10;;;;;;;-141.28;100.00;51936.16;5099175;28;20222;-73
2022/08/17 06:57:30;;;;;;;12.83;6.83;;;;;;;-141.28;100.00;51924.38;5062333;28;20201;-75
2022/08/17 07:00:01;;;;;;;13.97;6.60;;;;;;;-141.28;100.00;51938.13;5094041;28;20195;-73
2022/08/17 07:02:40;;;;;;;10.33;6.23;;;;;;;-141.28;100.00;51892.94;5091926;28;20665;-76
2022/08/17 07:05:08;;;;;;;19.97;7.40;;;;;;;-141.28;100.00;51975.44;5092965;28;20191;-76
2022/08/17 07:10:26;;;;;;;9.87;6.37;;;;;;;-141.28;100.00;51955.78;5072927;28;20231;-74
2022/08/17 07:12:55;;;;;;;11.40;6.80;;;;;;;-141.28;100.00;51967.56;5085736;28;20245;-74
2022/08/17 07:15:41;;;;;;;13.53;6.13;;;;;;;-141.28;100.00;51881.16;5066576;28;20192;-75
2022/08/17 07:18:09;;;;;;;9.13;6.17;;;;;;;-141.28;100.00;51790.84;5091479;28;20206;-74
2022/08/17 07:20:44;;;;;;;9.77;6.23;;;;;;;-141.28;100.00;51735.84;5069294;28;20235;-75
2022/08/17 07:23:21;;;;;;;10.67;6.70;;;;;;;-141.28;100.00;51582.69;5084542;28;20229;-73
2022/08/17 07:25:49;;;;;;;11.87;5.97;;;;;;;-141.28;100.00;51449.19;5092537;28;20203;-73
2022/08/17 07:28:23;;;;;;;9.67;5.90;;;;;;;-141.28;100.00;51390.28;5091608;28;20196;-73
2022/08/17 07:30:53;;;;;;;10.63;5.73;;;;;;;-141.28;100.00;51409.91;5092135;28;20256;-75
2022/08/17 07:33:24;;;;;;;8.20;5.50;;;;;;;-141.28;100.00;51205.72;5085834;28;20196;-74
2022/08/17 07:35:52;;;;;;;7.37;5.60;;;;;;;-141.28;100.00;51109.53;5083342;28;20196;-76
2022/08/17 07:38:22;;;;;;;9.97;5.40;;;;;;;-141.28;100.00;51044.75;5067379;28;20195;-75
2022/08/17 07:41:01;;;;;;;8.67;6.00;;;;;;;-141.28;100.00;50958.38;5090372;28;20207;-77
2022/08/17 07:43:30;;;;;;;12.00;5.80;;;;;;;-141.28;100.00;50911.25;5082189;28;20202;-76
2022/08/17 07:48:52;;;;;;;10.17;5.13;;;;;;;-141.28;100.00;50860.19;5082881;28;20239;-74
2022/08/17 07:51:25;;;;;;;13.20;5.60;;;;;;;-141.28;100.00;50803.28;5071685;28;20221;-76
2022/08/17 07:54:00;;;;;;;7.57;5.60;;;;;;;-141.28;100.00;50711.00;5077089;28;20537;-75
2022/08/17 07:56:38;;;;;;;10.20;5.47;;;;;;;-141.28;100.00;50630.53;5091564;28;20267;-74
2022/08/17 07:59:11;;;;;;;9.07;4.93;;;;;;;-141.28;100.00;50605.00;5091991;28;20261;-74
2022/08/17 08:01:40;;;;;;;10.47;5.20;;;;;;;-141.28;100.00;50585.38;5086614;28;20207;-74
2022/08/17 08:04:28;;;;;;;14.03;6.20;;;;;;;-141.28;100.00;50577.53;5085192;28;20276;-74
2022/08/17 08:06:58;;;;;;;10.77;6.50;;;;;;;-141.28;100.00;50493.13;5085069;28;20202;-75
2022/08/17 08:09:33;;;;;;;12.97;6.10;;;;;;;-141.28;100.00;50487.25;5080427;28;20202;-76
2022/08/17 08:12:24;;;;;;;13.00;6.20;;;;;;;-141.28;100.00;50302.72;5071348;28;20192;-76
2022/08/17 08:14:55;;;;;;;8.83;5.43;;;;;;;-141.28;100.00;50300.78;5071590;28;20244;-73
2022/08/17 08:17:24;;;;;;;9.53;5.37;;;;;;;-141.28;100.00;50141.78;5071470;28;20201;-76
2022/08/17 08:19:52;;;;;;;8.57;5.87;;;;;;;-141.28;100.00;50118.25;5075514;28;20259;-77
2022/08/17 08:22:28;;;;;;;11.17;5.60;;;;;;;-141.28;100.00;50071.13;5088178;28;20202;-75
2022/08/17 08:25:08;;;;;;;9.00;5.70;;;;;;;-141.28;100.00;49870.94;5083934;28;20202;-74
2022/08/17 08:27:47;;;;;;;11.40;5.40;;;;;;;-141.28;100.00;49949.44;5089799;28;20312;-75
2022/08/17 08:30:17;;;;;;;9.67;6.20;;;;;;;-141.28;100.00;49918.06;5090570;28;20687;-76
2022/08/17 08:33:06;;;;;;;14.43;6.33;;;;;;;-141.28;100.00;49953.38;5090057;28;20225;-73
2022/08/17 08:35:39;;;;;;;6.67;5.30;;;;;;;-141.28;100.00;49916.09;5069117;28;20220;-76
2022/08/17 08:38:17;;;;;;;8.37;4.97;;;;;;;-141.28;100.00;49855.25;5071125;28;20284;-74
2022/08/17 08:41:02;;;;;;;10.23;5.57;;;;;;;-141.28;100.00;49819.94;5090074;28;20576;-74
2022/08/17 08:43:44;;;;;;;8.10;5.07;;;;;;;-141.28;100.00;49749.28;5091446;28;20339;-75
2022/08/17 08:46:29;;;;;;;8.17;5.27;;;;;;;-141.28;100.00;49800.31;5091167;28;20206;-77
2022/08/17 08:49:33;;;;;;;8.57;5.10;;;;;;;-141.28;100.00;50090.75;5090654;28;20252;-76
2022/08/17 08:52:20;;;;;;;10.63;4.63;;;;;;;-141.28;100.00;49902.34;5092761;28;20199;-73
2022/08/17 08:54:54;;;;;;;8.70;5.33;;;;;;;-141.28;100.00;49772.81;5088136;28;20286;-74
2022/08/17 08:57:30;;;;;;;9.30;4.90;;;;;;;-141.28;100.00;49662.94;5072205;28;20195;-75
2022/08/17 09:00:09;;;;;;;8.10;4.90;;;;;;;-141.28;100.00;49607.97;5075558;28;20204;-75
2022/08/17 09:03:07;;;;;;;8.43;4.70;;;;;;;-141.28;100.00;49545.19;5063635;28;20576;-75
2022/08/17 09:05:51;;;;;;;8.43;4.97;;;;;;;-141.28;100.00;49348.97;5072099;28;20655;-75
2022/08/17 09:08:26;;;;;;;5.50;4.00;;;;;;;-141.28;100.00;49050.72;5074497;28;20203;-75
2022/08/17 09:11:01;;;;;;;5.57;4.13;;;;;;;-141.28;100.00;49176.28;5074711;28;20224;-75
2022/08/17 09:13:40;;;;;;;8.30;4.27;;;;;;;-141.28;100.00;49072.31;5073847;28;20618;-75
2022/08/17 09:16:14;;;;;;;6.30;3.83;;;;;;;-141.28;100.00;48905.53;5074261;28;20200;-74
2022/08/17 09:18:43;;;;;;;4.90;4.37;;;;;;;-141.28;100.00;48860.41;5070100;28;20200;-75
2022/08/17 09:21:20;;;;;;;9.07;4.63;;;;;;;-141.28;100.00;48783.91;5093871;28;20211;-74
2022/08/17 09:23:58;;;;;;;5.90;4.03;;;;;;;-141.28;100.00;48750.53;5094149;28;20220;-75
2022/08/17 09:26:31;;;;;;;6.50;4.17;;;;;;;-141.28;100.00;48715.22;5094097;28;20680;-74
2022/08/17 09:29:03;;;;;;;8.63;3.83;;;;;;;-141.28;100.00;48664.22;5094228;28;20200;-73
2022/08/17 09:31:36;;;;;;;10.37;4.03;;;;;;;-141.28;100.00;48642.63;5094617;28;20230;-74
2022/08/17 09:34:08;;;;;;;4.63;3.90;;;;;;;-141.28;100.00;48636.75;5094584;28;20211;-75
2022/08/17 09:36:42;;;;;;;5.17;3.90;;;;;;;-141.28;100.00;48677.94;5093872;28;20242;-76
2022/08/17 09:39:16;;;;;;;6.47;3.73;;;;;;;-141.28;100.00;48632.84;5093298;28;20201;-76
2022/08/17 09:41:47;;;;;;;9.23;3.70;;;;;;;-141.28;100.00;48646.56;5073670;28;20580;-75
2022/08/17 09:44:26;;;;;;;9.63;4.00;;;;;;;-141.28;100.00;48658.34;5075253;28;20570;-77
2022/08/17 09:47:02;;;;;;;9.37;4.10;;;;;;;-141.28;100.00;48621.06;5093866;28;20210;-74
2022/08/17 09:49:34;;;;;;;8.77;4.10;;;;;;;-141.28;100.00;48666.19;5093247;28;20220;-75
2022/08/17 09:52:07;;;;;;;7.03;3.90;;;;;;;-141.28;100.00;48568.09;5081902;28;20573;-76
2022/08/17 09:54:38;;;;;;;5.87;3.57;;;;;;;-141.28;100.00;48591.63;5083089;28;20679;-75
2022/08/17 09:57:17;;;;;;;6.90;3.93;;;;;;;-141.28;100.00;48632.84;5094008;28;20541;-74
2022/08/17 10:00:00;;;;;;;6.27;3.70;;;;;;;-141.28;100.00;48652.44;5093105;28;20652;-74
2022/08/17 10:02:55;;;;;;;5.20;3.60;;;;;;;-141.28;100.00;48658.34;5093510;28;20202;-74
2022/08/17 10:05:31;;;;;;;4.33;3.30;;;;;;;-141.28;100.00;48670.09;5092276;28;20205;-76
2022/08/17 10:08:08;;;;;;;4.93;3.70;;;;;;;-141.28;100.00;48674.03;5091041;28;20583;-77
2022/08/17 10:10:44;;;;;;;10.07;5.13;;;;;;;-141.28;100.00;48654.41;5092489;28;20303;-76
2022/08/17 10:13:20;;;;;;;6.33;3.80;;;;;;;-141.28;100.00;48693.66;5093083;28;20192;-77
2022/08/17 10:15:58;;;;;;;8.13;3.70;;;;;;;-141.28;100.00;48693.66;5093269;28;20261;-77
2022/08/17 10:18:44;;;;;;;10.50;3.87;;;;;;;-141.28;100.00;48679.91;5093762;28;20230;-76
2022/08/17 10:26:56;;;;;;;6.17;3.83;;;;;;;-141.28;100.00;48677.94;5093169;28;20253;-76
2022/08/17 10:29:28;;;;;;;14.50;3.80;;;;;;;-141.28;100.00;48662.25;5082516;28;20676;-75
2022/08/17 10:32:03;;;;;;;8.33;3.80;;;;;;;-141.28;91.67;48662.25;5092667;28;20233;-75
2022/08/17 10:34:58;;;;;;;7.60;3.70;;;;;;;-141.28;94.52;48666.19;5077811;28;20206;-74
2022/08/17 10:38:06;;;;;;;4.83;3.80;;;;;;;-141.28;88.34;48901.59;5075137;28;20198;-74
2022/08/17 10:40:38;;;;;;;8.47;3.53;;;;;;;-141.28;78.37;48623.03;5066356;28;20259;-73
2022/08/17 10:43:28;;;;;;;5.23;3.40;;;;;;;-141.28;72.63;48623.03;5073688;28;20199;-74
2022/08/17 10:46:04;;;;;;;5.20;3.77;;;;;;;-141.28;66.40;48630.88;5072906;28;20302;-75
2022/08/17 10:48:36;;;;;;;4.93;3.40;;;;;;;-141.28;69.28;48693.66;5063493;28;20231;-76
2022/08/17 10:51:09;;;;;;;4.00;3.60;;;;;;;-141.28;73.21;48638.72;5095707;28;20241;-76
2022/08/17 10:53:59;;;;;;;6.47;4.00;;;;;;;-141.28;75.41;48646.56;5060808;28;20269;-74
2022/08/17 10:56:42;;;;;;;7.67;3.40;;;;;;;-141.28;70.86;48630.88;5072954;28;20684;-74
2022/08/17 10:59:09;;;;;;;9.13;4.00;;;;;;;-141.28;72.25;48638.72;5072874;28;20211;-76
2022/08/17 11:01:58;;;;;;;6.33;3.93;;;;;;;-141.28;74.19;48623.03;5072935;28;20203;-75
2022/08/17 11:04:43;;;;;;;5.87;4.07;;;;;;;-141.28;72.72;48540.63;5055001;28;20208;-77
2022/08/17 11:07:26;;;;;;;8.77;3.83;;;;;;;-141.28;68.60;48595.56;5087018;28;20206;-76
2022/08/17 11:10:17;;;;;;;8.40;4.50;;;;;;;-141.28;66.32;48609.28;5092659;28;20207;-76
2022/08/17 11:13:00;;;;;;;8.03;4.10;;;;;;;-141.28;69.75;48599.47;5092491;28;20203;-74
2022/08/17 11:15:45;;;;;;;4.90;3.93;;;;;;;-141.28;65.20;48615.19;5083371;28;20257;-76
2022/08/17 11:18:37;;;;;;;4.40;4.00;;;;;;;-141.28;70.16;48599.47;5090812;28;20220;-74
2022/08/17 11:21:26;;;;;;;6.87;3.90;;;;;;;-141.28;71.25;48619.09;5091988;28;20653;-76
2022/08/17 11:24:13;;;;;;;6.67;3.90;;;;;;;-141.28;66.37;48599.47;5092677;28;20287;-74
2022/08/17 11:26:46;;;;;;;7.10;4.20;;;;;;;-141.28;69.89;48583.78;5091917;28;20194;-76
2022/08/17 11:29:26;;;;;;;6.73;4.80;;;;;;;-141.28;72.82;48630.88;5090763;28;20218;-75
2022/08/17 11:32:05;;;;;;;8.23;3.97;;;;;;;-141.28;83.40;48630.88;5091769;28;20299;-77
2022/08/17 11:34:33;;;;;;;6.27;4.50;;;;;;;-141.28;84.77;48646.56;5092842;28;20667;-73
2022/08/17 11:37:44;;;;;;;6.83;4.27;;;;;;;-141.28;88.13;48670.09;5092219;28;20210;-75
2022/08/17 11:40:42;;;;;;;9.50;4.30;;;;;;;-141.28;92.54;48672.06;5080594;28;20679;-76
2022/08/17 11:43:54;;;;;;;10.60;4.10;;;;;;;-141.28;91.76;48664.22;5092177;28;20661;-75
2022/08/17 11:52:37;;;;;;;5.57;4.13;;;;;;;-141.28;100.00;48727.00;5090634;28;20291;-76
2022/08/17 11:55:08;;;;;;;8.87;4.20;;;;;;;-141.28;100.00;48711.31;5033509;28;20203;-74
2022/08/17 11:58:06;;;;;;;8.37;4.23;;;;;;;-141.28;100.00;48703.47;5091436;28;20240;-75
2022/08/17 12:00:56;;;;;;;8.90;4.33;;;;;;;-141.28;100.00;48742.69;5058392;28;20193;-75
2022/08/17 12:03:55;;;;;;;11.80;4.23;;;;;;;-141.28;100.00;48730.91;5071924;28;20200;-78
2022/08/17 12:06:39;;;;;;;6.83;4.60;;;;;;;-141.28;100.00;48740.72;5072232;28;20665;-77